Time,TemperatureF,DewpointF,PressureIn,WindDirection,WindDirectionDegrees,WindSpeedMPH,WindSpeedGustMPH,Humidity,HourlyPrecipIn,Conditions,Clouds,dailyrainin,SolarRadiationWatts/m^2,UVIndex,SoftwareType,DateUTC
2020-08-11 00:04:56,71.4,66.3,29.89,SW,229,0,2,83.8,0.00,,,0.00,,,n/a,2020-08-11T04:04:56Z
2020-08-11 00:09:56,71.4,66.2,29.88,SW,229,0,2,83.7,0.00,,,0.00,,,n/a,2020-08-11T04:09:56Z
2020-08-11 00:14:56,71.5,66.1,29.88,SW,229,0.1,2,83,0.00,,,0.00,,,n/a,2020-08-11T04:14:56Z
2020-08-11 00:19:56,71.5,66.1,29.88,SW,229,0,2,83,0.00,,,0.00,,,n/a,2020-08-11T04:19:56Z
2020-08-11 00:24:56,71.6,66.2,29.88,SW,229,0.2,2,83,0.00,,,0.00,,,n/a,2020-08-11T04:24:56Z
2020-08-11 00:29:56,71.7,66,29.88,SW,229,0.1,2,82.3,0.00,,,0.00,,,n/a,2020-08-11T04:29:56Z
2020-08-11 00:34:56,71.6,65.9,29.87,SW,229,0,2,82.2,0.00,,,0.00,,,n/a,2020-08-11T04:34:56Z
2020-08-11 00:39:56,71.3,66.1,29.87,SW,229,0,2,83.9,0.00,,,0.00,,,n/a,2020-08-11T04:39:56Z
2020-08-11 00:44:56,71.1,66,29.87,SW,229,0,1,84,0.00,,,0.00,,,n/a,2020-08-11T04:44:56Z
2020-08-11 00:49:56,71.1,65.7,29.87,SW,229,0,0,83.3,0.00,,,0.00,,,n/a,2020-08-11T04:49:56Z
2020-08-11 00:54:56,70.8,65.7,29.87,SW,229,0,0,84,0.00,,,0.00,,,n/a,2020-08-11T04:54:56Z
2020-08-11 00:59:56,70.8,66,29.87,SW,229,0,0,84.8,0.00,,,0.00,,,n/a,2020-08-11T04:59:56Z
2020-08-11 01:04:56,70.7,66,29.86,SW,229,0,0,85,0.00,,,0.00,,,n/a,2020-08-11T05:04:56Z
2020-08-11 01:09:56,70.7,66,29.86,SW,229,0,0,85,0.00,,,0.00,,,n/a,2020-08-11T05:09:56Z
2020-08-11 01:14:56,71.1,66.2,29.86,SW,229,0,0,84.5,0.00,,,0.00,,,n/a,2020-08-11T05:14:56Z
2020-08-11 01:19:56,71.4,66.3,29.86,SW,229,0,0,84,0.00,,,0.00,,,n/a,2020-08-11T05:19:56Z
2020-08-11 01:24:56,71.4,66.3,29.86,SW,229,0,0,84,0.00,,,0.00,,,n/a,2020-08-11T05:24:56Z
2020-08-11 01:29:56,71.2,66.1,29.86,SW,229,0.1,1,84.1,0.00,,,0.00,,,n/a,2020-08-11T05:29:56Z
2020-08-11 01:34:56,71.1,66.4,29.85,SW,229,0,1,85,0.00,,,0.00,,,n/a,2020-08-11T05:34:56Z
2020-08-11 01:39:56,71.2,66.5,29.85,SW,229,0.4,2,85,0.00,,,0.00,,,n/a,2020-08-11T05:39:56Z
2020-08-11 01:44:56,71.4,66.7,29.85,SW,229,0.4,2,85,0.00,,,0.00,,,n/a,2020-08-11T05:44:56Z
2020-08-11 01:49:56,71.6,66.8,29.85,SW,229,0.2,2,85,0.00,,,0.00,,,n/a,2020-08-11T05:49:56Z
2020-08-11 01:54:56,71.8,66.9,29.85,SW,228,0.5,2,84.7,0.00,,,0.00,,,n/a,2020-08-11T05:54:56Z
2020-08-11 01:59:56,71.9,66.8,29.85,SW,228,0.3,2,84,0.00,,,0.00,,,n/a,2020-08-11T05:59:56Z
2020-08-11 02:04:56,71.9,66.8,29.85,SW,228,0.8,2,84,0.00,,,0.00,,,n/a,2020-08-11T06:04:56Z
2020-08-11 02:09:56,71.9,66.8,29.84,SW,228,0.4,2,84,0.00,,,0.00,,,n/a,2020-08-11T06:09:56Z
2020-08-11 02:14:56,71.9,67,29.85,SW,228,0.3,2,84.6,0.00,,,0.00,,,n/a,2020-08-11T06:14:56Z
2020-08-11 02:19:56,71.8,67,29.84,SW,228,0.6,2,85,0.00,,,0.00,,,n/a,2020-08-11T06:19:56Z
2020-08-11 02:24:56,71.7,66.9,29.84,SW,228,0.5,2,85,0.00,,,0.00,,,n/a,2020-08-11T06:24:56Z
2020-08-11 02:29:56,71.4,66.7,29.84,SW,228,0.1,2,85.2,0.00,,,0.00,,,n/a,2020-08-11T06:29:56Z
2020-08-11 02:34:56,70.9,66.6,29.84,SW,228,0,1,86.3,0.00,,,0.00,,,n/a,2020-08-11T06:34:56Z
2020-08-11 02:39:56,70.8,66.7,29.84,SW,228,0,1,87,0.00,,,0.00,,,n/a,2020-08-11T06:39:56Z
2020-08-11 02:44:56,70.8,66.7,29.84,SW,228,0,1,87,0.00,,,0.00,,,n/a,2020-08-11T06:44:56Z
2020-08-11 02:49:56,70.6,66.5,29.84,SW,228,0,1,87,0.00,,,0.00,,,n/a,2020-08-11T06:49:56Z
2020-08-11 02:54:56,70.5,66.4,29.84,SW,228,0,1,87,0.00,,,0.00,,,n/a,2020-08-11T06:54:56Z
2020-08-11 02:59:56,70.3,66.6,29.84,SW,228,0,1,88,0.00,,,0.00,,,n/a,2020-08-11T06:59:56Z
2020-08-11 03:04:56,70.3,66.6,29.84,SW,228,0,0,88,0.00,,,0.00,,,n/a,2020-08-11T07:04:56Z
2020-08-11 03:09:56,70.2,66.5,29.84,SW,228,0,0,88,0.00,,,0.00,,,n/a,2020-08-11T07:09:56Z
2020-08-11 03:14:56,70.3,66.9,29.84,SW,228,0,0,88.9,0.00,,,0.00,,,n/a,2020-08-11T07:14:56Z
2020-08-11 03:19:56,70.5,66.9,29.84,SW,228,0,0,88.3,0.00,,,0.00,,,n/a,2020-08-11T07:19:56Z
2020-08-11 03:24:56,70.5,66.8,29.84,SW,228,0,0,88,0.00,,,0.00,,,n/a,2020-08-11T07:24:56Z
2020-08-11 03:29:56,70.7,67,29.84,SW,228,0.2,1,88,0.00,,,0.00,,,n/a,2020-08-11T07:29:56Z
2020-08-11 03:34:56,70.7,66.7,29.84,SW,228,0.2,1,87.5,0.00,,,0.00,,,n/a,2020-08-11T07:34:56Z
2020-08-11 03:39:56,70.4,66.7,29.84,SW,228,0,1,88,0.00,,,0.00,,,n/a,2020-08-11T07:39:56Z
2020-08-11 03:44:56,70.1,66.4,29.84,SW,228,0.1,1,88,0.00,,,0.00,,,n/a,2020-08-11T07:44:56Z
2020-08-11 03:49:56,70.1,66.4,29.84,SW,228,0,1,88,0.00,,,0.00,,,n/a,2020-08-11T07:49:56Z
2020-08-11 03:54:56,70.1,66.5,29.83,SW,224,0.4,2,88.4,0.00,,,0.00,,,n/a,2020-08-11T07:54:56Z
2020-08-11 03:59:56,70.3,66.7,29.83,SW,221,0.7,2,88.4,0.00,,,0.00,,,n/a,2020-08-11T07:59:56Z
2020-08-11 04:04:56,70.4,66.7,29.83,SW,214,0.5,3,88,0.00,,,0.00,,,n/a,2020-08-11T08:04:56Z
2020-08-11 04:09:56,70.3,66.6,29.83,South,190,0.8,3,88,0.00,,,0.00,,,n/a,2020-08-11T08:09:56Z
2020-08-11 04:14:56,70.3,66.6,29.83,South,190,0.3,3,88,0.00,,,0.00,,,n/a,2020-08-11T08:14:56Z
2020-08-11 04:19:56,70.2,66.5,29.83,South,190,0.2,2,88,0.00,,,0.00,,,n/a,2020-08-11T08:19:56Z
2020-08-11 04:24:56,70.1,66.4,29.83,South,190,0.6,2,88,0.00,,,0.00,,,n/a,2020-08-11T08:24:56Z
2020-08-11 04:29:56,70.1,66.4,29.82,South,190,0.5,2,88,0.00,,,0.00,,,n/a,2020-08-11T08:29:56Z
2020-08-11 04:34:56,70,66.3,29.82,South,190,0.6,2,88,0.00,,,0.00,,,n/a,2020-08-11T08:34:56Z
2020-08-11 04:39:56,70.2,66.5,29.82,South,190,1.1,3,88,0.00,,,0.00,,,n/a,2020-08-11T08:39:56Z
2020-08-11 04:44:56,70.7,66.7,29.82,South,190,1.3,3,87.2,0.00,,,0.00,,,n/a,2020-08-11T08:44:56Z
2020-08-11 04:49:56,71.1,66.7,29.82,South,190,1.3,3,86.1,0.00,,,0.00,,,n/a,2020-08-11T08:49:56Z
2020-08-11 04:54:56,71.1,66.4,29.82,South,186,1.1,3,85,0.00,,,0.00,,,n/a,2020-08-11T08:54:56Z
2020-08-11 04:59:56,71.2,66.5,29.82,South,184,1.2,3,85,0.00,,,0.00,,,n/a,2020-08-11T08:59:56Z
2020-08-11 05:04:56,70.9,66.2,29.82,South,184,0.8,3,85.1,0.00,,,0.00,,,n/a,2020-08-11T09:04:56Z
2020-08-11 05:09:56,70.7,66.2,29.82,South,184,1,2,85.8,0.00,,,0.00,,,n/a,2020-08-11T09:09:56Z
2020-08-11 05:14:56,70.9,66.2,29.82,South,184,1,2,84.8,0.00,,,0.00,,,n/a,2020-08-11T09:14:56Z
2020-08-11 05:19:56,71.1,66,29.83,South,184,1.2,2,84,0.00,,,0.00,,,n/a,2020-08-11T09:19:56Z
2020-08-11 05:24:56,71.3,66,29.83,South,185,1.5,4,83.5,0.00,,,0.00,,,n/a,2020-08-11T09:24:56Z
2020-08-11 05:29:56,71.4,66,29.83,South,185,1.4,4,83,0.00,,,0.00,,,n/a,2020-08-11T09:29:56Z
2020-08-11 05:34:56,71.1,65.7,29.83,South,185,1,4,83,0.00,,,0.00,,,n/a,2020-08-11T09:34:56Z
2020-08-11 05:39:56,70.8,65.6,29.83,South,186,0.9,3,83.6,0.00,,,0.00,,,n/a,2020-08-11T09:39:56Z
2020-08-11 05:44:56,70.7,65.6,29.83,South,185,0.6,3,84,0.00,,,0.00,,,n/a,2020-08-11T09:44:56Z
2020-08-11 05:49:56,70.7,65.6,29.83,South,185,0.8,2,84,0.00,,,0.00,,,n/a,2020-08-11T09:49:56Z
2020-08-11 05:54:56,70.5,65.4,29.83,South,186,0.5,2,84,0.00,,,0.00,,,n/a,2020-08-11T09:54:56Z
2020-08-11 05:59:56,70.3,65.2,29.83,South,186,0.4,2,84,0.00,,,0.00,,,n/a,2020-08-11T09:59:56Z
2020-08-11 06:04:56,70.3,65.2,29.84,South,186,0.6,2,84.2,0.00,,,0.00,,,n/a,2020-08-11T10:04:56Z
2020-08-11 06:09:56,70.2,65.1,29.83,South,186,0.7,2,84.1,0.00,,,0.00,,,n/a,2020-08-11T10:09:56Z
2020-08-11 06:14:56,69.9,65.2,29.83,South,186,0.5,2,85,0.00,,,0.00,,,n/a,2020-08-11T10:14:56Z
2020-08-11 06:19:56,69.7,65,29.84,South,185,0.5,3,85,0.00,,,0.00,,,n/a,2020-08-11T10:19:56Z
2020-08-11 06:24:56,69.6,64.9,29.84,South,184,0.7,3,85.2,0.00,,,0.00,,,n/a,2020-08-11T10:24:56Z
2020-08-11 06:29:56,69.6,65,29.84,South,184,0.8,3,85.5,0.00,,,0.00,,,n/a,2020-08-11T10:29:56Z
2020-08-11 06:34:56,69.9,65.2,29.84,South,182,0.9,3,84.9,0.00,,,0.00,,,n/a,2020-08-11T10:34:56Z
2020-08-11 06:39:56,70.1,65,29.84,South,182,1.3,3,84,0.00,,,0.00,,,n/a,2020-08-11T10:39:56Z
2020-08-11 06:44:56,70.3,65,29.83,South,182,1,3,83.4,0.00,,,0.00,,,n/a,2020-08-11T10:44:56Z
2020-08-11 06:49:56,70.4,65,29.83,South,182,1.1,3,83,0.00,,,0.00,,,n/a,2020-08-11T10:49:56Z
2020-08-11 06:54:56,70.6,65.2,29.84,South,181,0.9,3,83,0.00,,,0.00,,,n/a,2020-08-11T10:54:56Z
2020-08-11 06:59:56,70.7,65.3,29.84,South,181,0.9,3,83,0.00,,,0.00,,,n/a,2020-08-11T10:59:56Z
2020-08-11 07:04:56,70.8,65.4,29.83,South,170,0.9,3,83,0.00,,,0.00,,,n/a,2020-08-11T11:04:56Z
2020-08-11 07:09:56,71,65.2,29.83,SSE,155,0.8,3,82,0.00,,,0.00,,,n/a,2020-08-11T11:09:56Z
2020-08-11 07:14:56,71.2,65.4,29.83,SSE,161,1.4,3,82,0.00,,,0.00,,,n/a,2020-08-11T11:14:56Z
2020-08-11 07:19:56,71.4,65.6,29.83,SSE,149,1.1,4,81.9,0.00,,,0.00,,,n/a,2020-08-11T11:19:56Z
2020-08-11 07:24:56,71.8,65.7,29.83,South,171,1.3,6,81,0.00,,,0.00,,,n/a,2020-08-11T11:24:56Z
2020-08-11 07:29:56,72.1,65.7,29.83,SSE,163,2.2,6,80.5,0.00,,,0.00,,,n/a,2020-08-11T11:29:56Z
2020-08-11 07:34:56,72.5,65.6,29.83,South,172,2.1,6,79.2,0.00,,,0.00,,,n/a,2020-08-11T11:34:56Z
2020-08-11 07:39:56,72.9,65.9,29.83,SSE,160,2.2,6,78.7,0.00,,,0.00,,,n/a,2020-08-11T11:39:56Z
2020-08-11 07:44:56,73.4,65.9,29.83,South,170,2.5,8,77.4,0.00,,,0.00,,,n/a,2020-08-11T11:44:56Z
2020-08-11 07:49:56,73.9,66,29.83,South,179,2.9,8,76.5,0.00,,,0.00,,,n/a,2020-08-11T11:49:56Z
2020-08-11 07:54:56,74.3,66.2,29.83,South,175,2.7,8,76.1,0.00,,,0.00,,,n/a,2020-08-11T11:54:56Z
2020-08-11 07:59:56,74.6,66.4,29.83,South,183,2.2,7,75.8,0.00,,,0.00,,,n/a,2020-08-11T11:59:56Z
2020-08-11 08:04:56,74.9,66.7,29.83,South,169,1.6,7,75.6,0.00,,,0.00,,,n/a,2020-08-11T12:04:56Z
2020-08-11 08:09:56,75.3,66.8,29.83,South,170,1.9,7,75,0.00,,,0.00,,,n/a,2020-08-11T12:09:56Z
2020-08-11 08:14:56,75.4,67,29.83,South,179,2.3,6,75.2,0.00,,,0.00,,,n/a,2020-08-11T12:14:56Z
2020-08-11 08:19:56,75.6,67,29.83,SSE,166,2.9,8,74.7,0.00,,,0.00,,,n/a,2020-08-11T12:19:56Z
2020-08-11 08:24:56,75.9,67,29.83,South,169,2.9,8,74,0.00,,,0.00,,,n/a,2020-08-11T12:24:56Z
2020-08-11 08:29:56,76.2,67.1,29.83,South,179,2,8,73.4,0.00,,,0.00,,,n/a,2020-08-11T12:29:56Z
2020-08-11 08:34:56,76.7,67.4,29.83,South,189,2.9,7,73,0.00,,,0.00,,,n/a,2020-08-11T12:34:56Z
2020-08-11 08:39:56,77.3,67.8,29.83,South,185,2.9,7,72.5,0.00,,,0.00,,,n/a,2020-08-11T12:39:56Z
2020-08-11 08:44:56,78,68,29.83,SSW,213,4.6,17,71.5,0.00,,,0.00,,,n/a,2020-08-11T12:44:56Z
2020-08-11 08:49:56,78.5,68.3,29.84,SW,222,4.3,17,71,0.00,,,0.00,,,n/a,2020-08-11T12:49:56Z
2020-08-11 08:54:56,78.9,68.4,29.84,SSW,194,4.8,17,70.4,0.00,,,0.00,,,n/a,2020-08-11T12:54:56Z
2020-08-11 08:59:56,79.1,68.7,29.83,SSW,205,4.3,14,70.5,0.00,,,0.00,,,n/a,2020-08-11T12:59:56Z
2020-08-11 09:04:56,79.2,68.6,29.83,SW,222,5.4,14,70,0.00,,,0.00,,,n/a,2020-08-11T13:04:56Z
2020-08-11 09:09:56,79.3,68.7,29.83,SW,224,4.9,11,70,0.00,,,0.00,,,n/a,2020-08-11T13:09:56Z
2020-08-11 09:14:56,79.4,68.8,29.83,SW,219,6.1,13,70,0.00,,,0.00,,,n/a,2020-08-11T13:14:56Z
2020-08-11 09:19:56,79.4,68.8,29.83,SW,223,5.6,17,70,0.00,,,0.00,,,n/a,2020-08-11T13:19:56Z
2020-08-11 09:24:56,79.5,68.9,29.83,SW,220,5.2,17,70,0.00,,,0.00,,,n/a,2020-08-11T13:24:56Z
2020-08-11 09:29:56,79.4,69.1,29.83,SSW,208,6,17,70.6,0.00,,,0.00,,,n/a,2020-08-11T13:29:56Z
2020-08-11 09:34:56,79.2,69,29.83,SSW,203,4.6,15,71,0.00,,,0.00,,,n/a,2020-08-11T13:34:56Z
2020-08-11 09:39:56,79.1,68.9,29.83,SW,221,4.8,15,71.2,0.00,,,0.00,,,n/a,2020-08-11T13:39:56Z
2020-08-11 09:44:56,79.2,69.3,29.83,SW,227,5.8,15,71.8,0.00,,,0.00,,,n/a,2020-08-11T13:44:56Z
2020-08-11 09:49:56,78.9,69,29.83,SW,217,5.7,19,71.7,0.00,,,0.00,,,n/a,2020-08-11T13:49:56Z
2020-08-11 09:54:56,78.6,68.8,29.83,SW,220,6.5,19,72,0.00,,,0.00,,,n/a,2020-08-11T13:54:56Z
2020-08-11 09:59:56,78.5,68.7,29.83,SW,223,3.7,19,72.1,0.00,,,0.00,,,n/a,2020-08-11T13:59:56Z
2020-08-11 10:04:56,78.8,69.3,29.83,SW,223,5,15,72.6,0.00,,,0.00,,,n/a,2020-08-11T14:04:56Z
2020-08-11 10:09:56,79.4,69.5,29.83,SSW,211,5.9,18,71.8,0.00,,,0.00,,,n/a,2020-08-11T14:09:56Z
2020-08-11 10:14:56,79.4,69.3,29.84,SSW,207,5.3,18,71.4,0.00,,,0.00,,,n/a,2020-08-11T14:14:56Z
2020-08-11 10:19:56,79.2,69.3,29.84,SW,233,4.8,18,71.8,0.00,,,0.00,,,n/a,2020-08-11T14:19:56Z
2020-08-11 10:24:56,78.9,69.3,29.84,SW,214,3.8,12,72.5,0.00,,,0.00,,,n/a,2020-08-11T14:24:56Z
2020-08-11 10:29:56,78.9,69.5,29.84,SW,229,3.8,12,73,0.00,,,0.00,,,n/a,2020-08-11T14:29:56Z
2020-08-11 10:34:56,78.9,69.2,29.84,SW,216,5.2,13,72.2,0.00,,,0.00,,,n/a,2020-08-11T14:34:56Z
2020-08-11 10:39:56,78.8,69.3,29.84,SW,226,4.3,13,72.9,0.00,,,0.00,,,n/a,2020-08-11T14:39:56Z
2020-08-11 10:44:56,78.7,69.3,29.84,SW,224,3.9,13,73,0.00,,,0.00,,,n/a,2020-08-11T14:44:56Z
2020-08-11 10:49:56,79.4,69.7,29.84,SW,217,5.7,14,72.4,0.00,,,0.00,,,n/a,2020-08-11T14:49:56Z
2020-08-11 10:54:56,80.1,69.9,29.84,SW,229,4.3,14,71.1,0.00,,,0.00,,,n/a,2020-08-11T14:54:56Z
2020-08-11 10:59:56,79.8,69.6,29.84,SSW,206,3.7,14,71,0.00,,,0.00,,,n/a,2020-08-11T14:59:56Z
2020-08-11 11:04:56,80.1,69.5,29.84,SW,231,4.4,13,70.2,0.00,,,0.00,,,n/a,2020-08-11T15:04:56Z
2020-08-11 11:09:56,79.8,68.7,29.84,WSW,239,5.5,14,69,0.00,,,0.00,,,n/a,2020-08-11T15:09:56Z
2020-08-11 11:14:56,78.8,68,29.84,SW,222,6.8,15,69.4,0.00,,,0.00,,,n/a,2020-08-11T15:14:56Z
2020-08-11 11:19:56,78.3,67.8,29.84,SW,226,6.7,15,70.2,0.00,,,0.00,,,n/a,2020-08-11T15:19:56Z
2020-08-11 11:24:56,78.5,68.3,29.84,SSW,205,4.9,15,70.9,0.00,,,0.00,,,n/a,2020-08-11T15:24:56Z
2020-08-11 11:29:56,79.6,68.7,29.85,SSW,205,7.4,15,69.6,0.00,,,0.00,,,n/a,2020-08-11T15:29:56Z
2020-08-11 11:34:56,79.4,68.2,29.84,SW,218,5,15,68.8,0.00,,,0.00,,,n/a,2020-08-11T15:34:56Z
2020-08-11 11:39:56,79.2,68.1,29.84,SW,214,6.3,15,69,0.00,,,0.00,,,n/a,2020-08-11T15:39:56Z
2020-08-11 11:44:56,79.6,68.7,29.84,SW,214,5.6,15,69.3,0.00,,,0.00,,,n/a,2020-08-11T15:44:56Z
2020-08-11 11:49:56,79.6,68.9,29.85,SW,227,4.3,15,69.8,0.00,,,0.00,,,n/a,2020-08-11T15:49:56Z
2020-08-11 11:54:56,79.6,69,29.85,SW,215,3.1,14,70.2,0.00,,,0.00,,,n/a,2020-08-11T15:54:56Z
2020-08-11 11:59:56,80.1,69.1,29.85,SSW,209,4.2,14,69.3,0.00,,,0.00,,,n/a,2020-08-11T15:59:56Z
2020-08-11 12:04:56,80.3,69.2,29.85,SW,226,3.9,14,69.1,0.00,,,0.00,,,n/a,2020-08-11T16:04:56Z
2020-08-11 12:09:56,80.3,68.5,29.85,SW,229,4.7,14,67.3,0.00,,,0.00,,,n/a,2020-08-11T16:09:56Z
2020-08-11 12:14:56,80,68.4,29.85,SW,225,3.6,13,67.7,0.00,,,0.00,,,n/a,2020-08-11T16:14:56Z
2020-08-11 12:19:56,80,68.2,29.85,SW,220,4.6,13,67.4,0.00,,,0.00,,,n/a,2020-08-11T16:19:56Z
2020-08-11 12:24:56,80,68.2,29.85,SSW,206,5.9,15,67.3,0.00,,,0.00,,,n/a,2020-08-11T16:24:56Z
2020-08-11 12:29:56,79.7,67.8,29.85,SSW,201,7.1,16,67,0.00,,,0.00,,,n/a,2020-08-11T16:29:56Z
2020-08-11 12:34:56,79.9,68.3,29.85,SSW,210,5.2,17,67.7,0.00,,,0.00,,,n/a,2020-08-11T16:34:56Z
2020-08-11 12:39:56,80.1,68.6,29.85,SSW,200,4.6,17,68.2,0.00,,,0.00,,,n/a,2020-08-11T16:39:56Z
2020-08-11 12:44:56,79.9,68.6,29.85,SW,222,3.9,17,68.5,0.00,,,0.00,,,n/a,2020-08-11T16:44:56Z
2020-08-11 12:49:56,79.9,68.3,29.85,SW,214,5.1,13,67.7,0.00,,,0.00,,,n/a,2020-08-11T16:49:56Z
2020-08-11 12:54:56,79.6,67.7,29.85,SW,216,5.1,22,67,0.00,,,0.00,,,n/a,2020-08-11T16:54:56Z
2020-08-11 12:59:56,79.7,68.1,29.85,SW,229,5.2,22,67.7,0.00,,,0.00,,,n/a,2020-08-11T16:59:56Z
2020-08-11 13:04:56,79.7,67.9,29.85,SSW,204,5.3,22,67.2,0.00,,,0.00,,,n/a,2020-08-11T17:04:56Z
2020-08-11 13:09:56,79.6,68.1,29.85,SW,225,4.2,12,67.8,0.00,,,0.00,,,n/a,2020-08-11T17:09:56Z
2020-08-11 13:14:56,79.6,68,29.85,SSW,204,6,14,67.8,0.00,,,0.00,,,n/a,2020-08-11T17:14:56Z
2020-08-11 13:19:56,79.4,68.1,29.85,SW,224,5.4,21,68.5,0.00,,,0.00,,,n/a,2020-08-11T17:19:56Z
2020-08-11 13:24:56,79.6,68.5,29.86,SW,215,4.7,21,68.8,0.00,,,0.00,,,n/a,2020-08-11T17:24:56Z
2020-08-11 13:29:56,80,69,29.86,SW,219,5,21,69.4,0.00,,,0.00,,,n/a,2020-08-11T17:29:56Z
2020-08-11 13:34:56,80.1,68.9,29.86,SSW,209,5.6,15,68.8,0.00,,,0.00,,,n/a,2020-08-11T17:34:56Z
2020-08-11 13:39:56,80,68.9,29.86,SW,222,5.4,15,69,0.00,,,0.00,,,n/a,2020-08-11T17:39:56Z
2020-08-11 13:44:56,79.9,68.8,29.86,SSW,211,5.2,15,69.2,0.00,,,0.00,,,n/a,2020-08-11T17:44:56Z
2020-08-11 13:49:56,79.8,68.9,29.86,SW,221,5.7,18,69.5,0.00,,,0.00,,,n/a,2020-08-11T17:49:56Z
2020-08-11 13:54:56,79.6,69,29.86,SW,217,6.1,18,70,0.00,,,0.00,,,n/a,2020-08-11T17:54:56Z
2020-08-11 13:59:56,79.5,69.2,29.86,SW,221,5.2,18,70.6,0.00,,,0.00,,,n/a,2020-08-11T17:59:56Z
2020-08-11 14:04:56,80,69.2,29.86,SW,224,5.7,18,69.7,0.00,,,0.00,,,n/a,2020-08-11T18:04:56Z
2020-08-11 14:09:56,80.2,69.2,29.86,SW,231,5,13,69.3,0.00,,,0.00,,,n/a,2020-08-11T18:09:56Z
2020-08-11 14:14:56,80,69.1,29.86,SSW,203,4.5,12,69.5,0.00,,,0.00,,,n/a,2020-08-11T18:14:56Z
2020-08-11 14:19:56,79.8,69.2,29.86,SW,216,4.3,12,70.2,0.00,,,0.00,,,n/a,2020-08-11T18:19:56Z
2020-08-11 14:24:56,80.1,69.3,29.86,SW,216,5.6,15,69.7,0.00,,,0.00,,,n/a,2020-08-11T18:24:56Z
2020-08-11 14:29:56,80.4,69.7,29.86,SW,227,4.4,15,70,0.00,,,0.00,,,n/a,2020-08-11T18:29:56Z
2020-08-11 14:34:56,80.9,69.9,29.86,SSW,206,5.6,15,69.3,0.00,,,0.00,,,n/a,2020-08-11T18:34:56Z
2020-08-11 14:39:56,80.9,69.3,29.86,SSW,212,5.1,13,67.8,0.00,,,0.00,,,n/a,2020-08-11T18:39:56Z
2020-08-11 14:44:56,80.6,69.3,29.86,SW,222,4.7,13,68.5,0.00,,,0.00,,,n/a,2020-08-11T18:44:56Z
2020-08-11 14:49:56,81.1,69.7,29.86,SW,219,5.4,13,68.6,0.00,,,0.00,,,n/a,2020-08-11T18:49:56Z
2020-08-11 14:54:56,80.7,69.3,29.86,SW,219,6.2,17,68.3,0.00,,,0.00,,,n/a,2020-08-11T18:54:56Z
2020-08-11 14:59:56,80.6,69.2,29.86,SW,214,5.4,17,68.2,0.00,,,0.00,,,n/a,2020-08-11T18:59:56Z
2020-08-11 15:04:56,80.7,69.4,29.86,SW,219,4.8,17,68.5,0.00,,,0.00,,,n/a,2020-08-11T19:04:56Z
2020-08-11 15:09:56,81.5,69.8,29.86,SSW,212,5.1,17,67.9,0.00,,,0.00,,,n/a,2020-08-11T19:09:56Z
2020-08-11 15:14:56,81.5,69.6,29.86,SW,222,5.3,17,67.3,0.00,,,0.00,,,n/a,2020-08-11T19:14:56Z
2020-08-11 15:19:56,81.1,69.4,29.87,SSW,213,6,17,67.7,0.00,,,0.00,,,n/a,2020-08-11T19:19:56Z
2020-08-11 15:24:56,81.3,69.7,29.86,SSW,206,5.2,17,68,0.00,,,0.00,,,n/a,2020-08-11T19:24:56Z
2020-08-11 15:29:56,81.1,69.6,29.86,SSW,211,5.3,17,68.2,0.00,,,0.00,,,n/a,2020-08-11T19:29:56Z
2020-08-11 15:34:56,80.9,69.3,29.87,SW,224,4.6,17,68,0.00,,,0.00,,,n/a,2020-08-11T19:34:56Z
2020-08-11 15:39:56,81.2,69.6,29.87,SW,221,5.9,17,68,0.00,,,0.00,,,n/a,2020-08-11T19:39:56Z
2020-08-11 15:44:56,81.4,69.7,29.86,SW,216,5.4,14,67.8,0.00,,,0.00,,,n/a,2020-08-11T19:44:56Z
2020-08-11 15:49:56,81.2,69.6,29.87,SSW,209,4.9,14,68,0.00,,,0.00,,,n/a,2020-08-11T19:49:56Z
2020-08-11 15:54:56,81.6,69.5,29.87,SW,236,4.2,14,66.8,0.00,,,0.00,,,n/a,2020-08-11T19:54:56Z
2020-08-11 15:59:56,81.4,69.4,29.87,SW,216,4.8,12,67,0.00,,,0.00,,,n/a,2020-08-11T19:59:56Z
2020-08-11 16:04:56,81.1,69.3,29.87,SW,222,4.5,12,67.5,0.00,,,0.00,,,n/a,2020-08-11T20:04:56Z
2020-08-11 16:09:56,81.4,69.4,29.87,SSW,206,4.2,12,67,0.00,,,0.00,,,n/a,2020-08-11T20:09:56Z
2020-08-11 16:14:56,82.5,69.9,29.87,SSW,209,4.5,11,65.7,0.00,,,0.00,,,n/a,2020-08-11T20:14:56Z
2020-08-11 16:19:56,82.8,69.7,29.87,SW,225,5.4,13,64.7,0.00,,,0.00,,,n/a,2020-08-11T20:19:56Z
2020-08-11 16:24:56,81.8,69.1,29.87,SSW,202,4.1,13,65.6,0.00,,,0.00,,,n/a,2020-08-11T20:24:56Z
2020-08-11 16:29:56,81.7,69.4,29.87,SSW,205,3.9,13,66.4,0.00,,,0.00,,,n/a,2020-08-11T20:29:56Z
2020-08-11 16:34:56,82.5,69.7,29.87,SW,220,4,11,65.3,0.00,,,0.00,,,n/a,2020-08-11T20:34:56Z
2020-08-11 16:39:56,82.5,69.6,29.87,SW,223,3.5,11,65,0.00,,,0.00,,,n/a,2020-08-11T20:39:56Z
2020-08-11 16:44:56,82.5,69.4,29.87,SW,221,3.9,11,64.8,0.00,,,0.00,,,n/a,2020-08-11T20:44:56Z
2020-08-11 16:49:56,83.2,70.1,29.87,SW,226,3,11,64.8,0.00,,,0.00,,,n/a,2020-08-11T20:49:56Z
2020-08-11 16:54:56,82.6,69.5,29.87,SW,224,3.5,10,64.5,0.00,,,0.00,,,n/a,2020-08-11T20:54:56Z
2020-08-11 16:59:56,81.9,69.2,29.87,SSW,212,4.9,12,65.7,0.00,,,0.00,,,n/a,2020-08-11T20:59:56Z
2020-08-11 17:04:56,81.4,68.9,29.88,SW,227,5.8,16,66.1,0.00,,,0.00,,,n/a,2020-08-11T21:04:56Z
2020-08-11 17:09:56,80.9,69.1,29.88,SSW,208,4.6,16,67.5,0.00,,,0.00,,,n/a,2020-08-11T21:09:56Z
2020-08-11 17:14:56,80.7,69.1,29.88,SSW,208,4.7,16,68,0.00,,,0.00,,,n/a,2020-08-11T21:14:56Z
2020-08-11 17:19:57,80.4,69.3,29.88,SSW,202,3.5,13,69,0.00,,,0.00,,,n/a,2020-08-11T21:19:57Z
2020-08-11 17:24:57,81,69.6,29.88,SW,214,3.9,11,68.4,0.00,,,0.00,,,n/a,2020-08-11T21:24:57Z
2020-08-11 17:29:57,81.4,69.5,29.88,SW,221,4.7,14,67.4,0.00,,,0.00,,,n/a,2020-08-11T21:29:57Z
2020-08-11 17:34:57,81.1,69.2,29.88,SW,214,3.4,14,67.3,0.00,,,0.00,,,n/a,2020-08-11T21:34:57Z
2020-08-11 17:39:57,80.8,69.1,29.88,SSW,210,3.8,14,67.6,0.00,,,0.00,,,n/a,2020-08-11T21:39:57Z
2020-08-11 17:44:57,80.7,68.7,29.88,SW,216,4.6,16,67,0.00,,,0.00,,,n/a,2020-08-11T21:44:57Z
2020-08-11 17:49:57,80.6,68.6,29.88,SSW,205,5.3,16,67,0.00,,,0.00,,,n/a,2020-08-11T21:49:57Z
2020-08-11 17:54:57,80.3,68.4,29.88,SW,216,5.1,16,67.1,0.00,,,0.00,,,n/a,2020-08-11T21:54:57Z
2020-08-11 17:59:57,80,68.5,29.88,SSW,199,4.3,16,68,0.00,,,0.00,,,n/a,2020-08-11T21:59:57Z
2020-08-11 18:04:57,79.8,68.7,29.89,SW,222,3.2,11,68.9,0.00,,,0.00,,,n/a,2020-08-11T22:04:57Z
2020-08-11 18:09:57,79.7,68.7,29.89,SW,218,3.7,11,69.2,0.00,,,0.00,,,n/a,2020-08-11T22:09:57Z
2020-08-11 18:14:57,79.6,69,29.89,SW,222,3,10,70,0.00,,,0.00,,,n/a,2020-08-11T22:14:57Z
2020-08-11 18:19:57,79.6,69.3,29.89,SSW,210,3.8,10,70.9,0.00,,,0.00,,,n/a,2020-08-11T22:19:57Z
2020-08-11 18:24:57,79.3,69.1,29.89,SW,234,2.6,8,71,0.00,,,0.00,,,n/a,2020-08-11T22:24:57Z
2020-08-11 18:29:57,79.1,69.3,29.89,SSW,206,2.3,8,71.9,0.00,,,0.00,,,n/a,2020-08-11T22:29:57Z
2020-08-11 18:34:57,79.1,69.3,29.89,SW,216,2.6,8,72.1,0.00,,,0.00,,,n/a,2020-08-11T22:34:57Z
2020-08-11 18:39:57,79.2,69.6,29.89,SSW,211,2.6,6,72.5,0.00,,,0.00,,,n/a,2020-08-11T22:39:57Z
2020-08-11 18:44:57,79,69.3,29.89,SW,216,3.9,8,72.2,0.00,,,0.00,,,n/a,2020-08-11T22:44:57Z
2020-08-11 18:49:57,78.7,69.3,29.89,SW,227,2.4,8,73,0.00,,,0.00,,,n/a,2020-08-11T22:49:57Z
2020-08-11 18:54:57,78.5,69.3,29.89,WSW,237,2.8,8,73.3,0.00,,,0.00,,,n/a,2020-08-11T22:54:57Z
2020-08-11 18:59:57,78.4,69.2,29.89,SW,216,3.2,8,73.3,0.00,,,0.00,,,n/a,2020-08-11T22:59:57Z
2020-08-11 19:04:57,78.3,69.1,29.90,SSW,204,2.3,8,73.5,0.00,,,0.00,,,n/a,2020-08-11T23:04:57Z
2020-08-11 19:09:57,78.1,69.1,29.89,SW,222,2.5,8,74,0.00,,,0.00,,,n/a,2020-08-11T23:09:57Z
2020-08-11 19:14:57,77.9,68.9,29.90,SW,216,1.9,7,74,0.00,,,0.00,,,n/a,2020-08-11T23:14:57Z
2020-08-11 19:19:57,77.8,69.1,29.90,SSW,205,1.6,6,74.8,0.00,,,0.00,,,n/a,2020-08-11T23:19:57Z
2020-08-11 19:24:57,76.8,69.6,29.90,NW,308,1.9,7,78.5,0.00,,,0.02,,,n/a,2020-08-11T23:24:57Z
2020-08-11 19:29:57,75.2,69.5,29.90,WNW,287,1.6,7,82.4,0.14,,,0.19,,,n/a,2020-08-11T23:29:57Z
2020-08-11 19:34:57,73.6,68.5,29.90,SW,234,0.3,7,84.1,0.20,,,0.20,,,n/a,2020-08-11T23:34:57Z
2020-08-11 19:39:57,73.1,69,29.90,SW,233,0.8,4,87.1,0.20,,,0.20,,,n/a,2020-08-11T23:39:57Z
2020-08-11 19:44:57,73.3,69.6,29.91,SW,234,0.8,3,88.3,0.20,,,0.20,,,n/a,2020-08-11T23:44:57Z
2020-08-11 19:49:57,73.1,69.6,29.91,SW,234,0.4,3,88.6,0.20,,,0.20,,,n/a,2020-08-11T23:49:57Z
2020-08-11 19:54:57,73.2,69.8,29.91,SW,234,0.2,2,89,0.20,,,0.20,,,n/a,2020-08-11T23:54:57Z
2020-08-11 19:59:57,73.2,69.9,29.91,SW,234,0,1,89.4,0.20,,,0.20,,,n/a,2020-08-11T23:59:57Z
2020-08-11 20:04:57,73.1,70,29.91,SW,234,0,1,90,0.20,,,0.20,,,n/a,2020-08-12T00:04:57Z
2020-08-11 20:09:57,73.1,70.1,29.91,SW,234,0.2,1,90.2,0.20,,,0.20,,,n/a,2020-08-12T00:09:57Z
2020-08-11 20:14:57,73.3,70.5,29.91,SW,234,0,1,91,0.20,,,0.21,,,n/a,2020-08-12T00:14:57Z
2020-08-11 20:19:57,73.3,70.3,29.91,SW,232,1.3,3,90.6,0.22,,,0.22,,,n/a,2020-08-12T00:19:57Z
2020-08-11 20:24:57,73.2,70.1,29.91,SW,232,0.9,3,90,0.22,,,0.22,,,n/a,2020-08-12T00:24:57Z
2020-08-11 20:29:57,73.1,70,29.91,SW,232,0.1,3,90,0.19,,,0.22,,,n/a,2020-08-12T00:29:57Z
2020-08-11 20:34:57,73,69.9,29.91,SW,232,0.2,2,90,0.02,,,0.22,,,n/a,2020-08-12T00:34:57Z
2020-08-11 20:39:57,72.9,69.8,29.92,SW,232,0,2,90,0.02,,,0.22,,,n/a,2020-08-12T00:39:57Z
2020-08-11 20:44:57,72.9,69.8,29.92,SW,232,0.2,2,90,0.02,,,0.22,,,n/a,2020-08-12T00:44:57Z
2020-08-11 20:49:57,72.9,69.8,29.92,SW,232,0.7,2,90,0.02,,,0.22,,,n/a,2020-08-12T00:49:57Z
2020-08-11 20:54:57,72.9,69.8,29.92,SW,232,0.7,2,90,0.02,,,0.22,,,n/a,2020-08-12T00:54:57Z
2020-08-11 20:59:57,72.9,69.8,29.92,SW,232,0.4,2,90,0.02,,,0.22,,,n/a,2020-08-12T00:59:57Z
2020-08-11 21:04:57,72.9,69.8,29.93,SW,232,0.3,2,90,0.02,,,0.22,,,n/a,2020-08-12T01:04:57Z
2020-08-11 21:09:57,72.7,69.7,29.93,SW,232,0.7,2,90,0.02,,,0.22,,,n/a,2020-08-12T01:09:57Z
2020-08-11 21:14:57,72.6,69.8,29.93,SW,232,0.1,2,90.8,0.02,,,0.22,,,n/a,2020-08-12T01:14:57Z